sensor_id;sensor_type;location;lat;lon;timestamp;temperature;humidity
12303;DHT22;6214;48.012;7.862;2023-10-19T00:00:41;12.90;99.90
12303;DHT22;6214;48.012;7.862;2023-10-19T00:03:12;13.00;99.90
12303;DHT22;6214;48.012;7.862;2023-10-19T00:05:39;13.00;99.90
12303;DHT22;6214;48.012;7.862;2023-10-19T00:08:08;12.70;99.90
12303;DHT22;6214;48.012;7.862;2023-10-19T00:10:44;12.80;99.90
12303;DHT22;6214;48.012;7.862;2023-10-19T00:13:12;12.90;99.90
12303;DHT22;6214;48.012;7.862;2023-10-19T00:15:40;12.90;99.90
12303;DHT22;6214;48.012;7.862;2023-10-19T00:18:07;12.90;99.90
12303;DHT22;6214;48.012;7.862;2023-10-19T00:20:54;13.00;99.90
12303;DHT22;6214;48.012;7.862;2023-10-19T00:23:26;13.10;99.90
12303;DHT22;6214;48.012;7.862;2023-10-19T00:25:58;13.00;99.90
12303;DHT22;6214;48.012;7.862;2023-10-19T00:28:26;13.00;99.90
12303;DHT22;6214;48.012;7.862;2023-10-19T00:30:54;13.00;99.90
12303;DHT22;6214;48.012;7.862;2023-10-19T00:33:29;12.80;99.90
12303;DHT22;6214;48.012;7.862;2023-10-19T00:36:00;12.30;99.90
12303;DHT22;6214;48.012;7.862;2023-10-19T00:38:27;13.00;99.90
12303;DHT22;6214;48.012;7.862;2023-10-19T00:40:54;13.00;99.90
12303;DHT22;6214;48.012;7.862;2023-10-19T00:43:47;13.00;99.90
12303;DHT22;6214;48.012;7.862;2023-10-19T00:46:17;13.10;99.90
12303;DHT22;6214;48.012;7.862;2023-10-19T00:48:52;13.10;99.90
12303;DHT22;6214;48.012;7.862;2023-10-19T00:51:28;13.10;99.90
12303;DHT22;6214;48.012;7.862;2023-10-19T00:53:57;13.20;99.90
12303;DHT22;6214;48.012;7.862;2023-10-19T00:56:26;13.10;99.90
12303;DHT22;6214;48.012;7.862;2023-10-19T00:58:56;13.20;99.90
12303;DHT22;6214;48.012;7.862;2023-10-19T01:01:29;13.30;99.90
12303;DHT22;6214;48.012;7.862;2023-10-19T01:03:56;13.40;99.90
12303;DHT22;6214;48.012;7.862;2023-10-19T01:06:24;13.60;99.90
12303;DHT22;6214;48.012;7.862;2023-10-19T01:08:52;13.50;99.90
12303;DHT22;6214;48.012;7.862;2023-10-19T01:11:20;13.50;99.90
12303;DHT22;6214;48.012;7.862;2023-10-19T01:13:48;13.40;99.90
12303;DHT22;6214;48.012;7.862;2023-10-19T01:16:15;13.40;99.90
12303;DHT22;6214;48.012;7.862;2023-10-19T01:18:51;13.60;99.90
12303;DHT22;6214;48.012;7.862;2023-10-19T01:21:24;13.50;99.90
12303;DHT22;6214;48.012;7.862;2023-10-19T01:24:07;13.40;99.90
12303;DHT22;6214;48.012;7.862;2023-10-19T01:26:35;13.50;99.90
12303;DHT22;6214;48.012;7.862;2023-10-19T01:29:04;13.50;99.90
12303;DHT22;6214;48.012;7.862;2023-10-19T01:31:41;13.40;99.90
12303;DHT22;6214;48.012;7.862;2023-10-19T01:34:31;13.50;99.90
12303;DHT22;6214;48.012;7.862;2023-10-19T01:37:00;13.40;99.90
12303;DHT22;6214;48.012;7.862;2023-10-19T01:39:31;13.50;99.90
12303;DHT22;6214;48.012;7.862;2023-10-19T01:41:58;13.50;99.90
12303;DHT22;6214;48.012;7.862;2023-10-19T01:44:25;13.40;99.90
12303;DHT22;6214;48.012;7.862;2023-10-19T01:46:52;13.40;99.90
12303;DHT22;6214;48.012;7.862;2023-10-19T01:49:19;13.40;99.90
12303;DHT22;6214;48.012;7.862;2023-10-19T01:51:53;13.40;99.90
12303;DHT22;6214;48.012;7.862;2023-10-19T01:54:23;13.50;99.90
12303;DHT22;6214;48.012;7.862;2023-10-19T01:56:53;13.60;99.90
12303;DHT22;6214;48.012;7.862;2023-10-19T01:59:23;13.60;99.90
12303;DHT22;6214;48.012;7.862;2023-10-19T02:01:56;13.70;99.90
12303;DHT22;6214;48.012;7.862;2023-10-19T02:04:24;13.70;99.90
12303;DHT22;6214;48.012;7.862;2023-10-19T02:06:52;13.70;99.90
12303;DHT22;6214;48.012;7.862;2023-10-19T02:09:20;13.70;99.90
12303;DHT22;6214;48.012;7.862;2023-10-19T02:11:56;13.80;99.90
12303;DHT22;6214;48.012;7.862;2023-10-19T02:14:25;13.80;99.90
12303;DHT22;6214;48.012;7.862;2023-10-19T02:16:54;13.80;99.90
12303;DHT22;6214;48.012;7.862;2023-10-19T02:19:27;13.80;99.90
12303;DHT22;6214;48.012;7.862;2023-10-19T02:21:57;13.90;99.90
12303;DHT22;6214;48.012;7.862;2023-10-19T02:24:24;13.90;99.90
12303;DHT22;6214;48.012;7.862;2023-10-19T02:26:55;13.90;99.90
12303;DHT22;6214;48.012;7.862;2023-10-19T02:29:22;13.80;99.90
12303;DHT22;6214;48.012;7.862;2023-10-19T02:31:49;13.90;99.90
12303;DHT22;6214;48.012;7.862;2023-10-19T02:34:16;14.00;99.90
12303;DHT22;6214;48.012;7.862;2023-10-19T02:36:45;14.10;99.90
12303;DHT22;6214;48.012;7.862;2023-10-19T02:39:13;13.90;99.90
12303;DHT22;6214;48.012;7.862;2023-10-19T02:41:45;13.90;99.90
12303;DHT22;6214;48.012;7.862;2023-10-19T02:44:19;14.00;99.90
12303;DHT22;6214;48.012;7.862;2023-10-19T02:46:53;14.00;99.90
12303;DHT22;6214;48.012;7.862;2023-10-19T02:49:27;14.00;99.90
12303;DHT22;6214;48.012;7.862;2023-10-19T02:51:54;14.00;99.90
12303;DHT22;6214;48.012;7.862;2023-10-19T02:54:22;13.90;99.90
12303;DHT22;6214;48.012;7.862;2023-10-19T02:56:52;14.00;99.90
12303;DHT22;6214;48.012;7.862;2023-10-19T02:59:21;14.00;99.90
12303;DHT22;6214;48.012;7.862;2023-10-19T03:01:52;14.00;99.90
12303;DHT22;6214;48.012;7.862;2023-10-19T03:04:27;13.90;99.90
12303;DHT22;6214;48.012;7.862;2023-10-19T03:06:58;13.90;99.90
12303;DHT22;6214;48.012;7.862;2023-10-19T03:09:25;14.00;99.90
12303;DHT22;6214;48.012;7.862;2023-10-19T03:11:56;14.10;99.90
12303;DHT22;6214;48.012;7.862;2023-10-19T03:14:26;14.10;99.90
12303;DHT22;6214;48.012;7.862;2023-10-19T03:16:54;14.10;99.90
12303;DHT22;6214;48.012;7.862;2023-10-19T03:19:24;14.20;99.90
12303;DHT22;6214;48.012;7.862;2023-10-19T03:21:54;14.10;99.90
12303;DHT22;6214;48.012;7.862;2023-10-19T03:24:22;14.10;99.90
12303;DHT22;6214;48.012;7.862;2023-10-19T03:27:05;14.20;99.90
12303;DHT22;6214;48.012;7.862;2023-10-19T03:29:44;14.20;99.90
12303;DHT22;6214;48.012;7.862;2023-10-19T03:32:16;14.00;99.90
12303;DHT22;6214;48.012;7.862;2023-10-19T03:34:43;14.10;99.90
12303;DHT22;6214;48.012;7.862;2023-10-19T03:37:14;14.10;99.90
12303;DHT22;6214;48.012;7.862;2023-10-19T03:39:42;14.10;99.90
12303;DHT22;6214;48.012;7.862;2023-10-19T03:42:12;14.30;99.90
12303;DHT22;6214;48.012;7.862;2023-10-19T03:44:40;14.30;99.90
12303;DHT22;6214;48.012;7.862;2023-10-19T03:47:20;14.40;99.90
12303;DHT22;6214;48.012;7.862;2023-10-19T03:49:48;14.60;99.90
12303;DHT22;6214;48.012;7.862;2023-10-19T03:52:17;14.60;99.90
12303;DHT22;6214;48.012;7.862;2023-10-19T03:54:44;14.70;99.90
12303;DHT22;6214;48.012;7.862;2023-10-19T03:57:13;14.60;99.90
12303;DHT22;6214;48.012;7.862;2023-10-19T03:59:47;14.70;99.90
12303;DHT22;6214;48.012;7.862;2023-10-19T04:02:17;14.60;99.90
12303;DHT22;6214;48.012;7.862;2023-10-19T04:04:48;14.60;99.90
12303;DHT22;6214;48.012;7.862;2023-10-19T04:07:16;14.70;99.90
12303;DHT22;6214;48.012;7.862;2023-10-19T04:09:56;14.80;99.90
12303;DHT22;6214;48.012;7.862;2023-10-19T04:12:36;14.80;99.90
12303;DHT22;6214;48.012;7.862;2023-10-19T04:15:05;14.80;99.90
12303;DHT22;6214;48.012;7.862;2023-10-19T04:17:47;14.80;99.90
12303;DHT22;6214;48.012;7.862;2023-10-19T04:20:16;14.80;99.90
12303;DHT22;6214;48.012;7.862;2023-10-19T04:22:48;14.80;99.90
12303;DHT22;6214;48.012;7.862;2023-10-19T04:25:17;14.70;99.90
12303;DHT22;6214;48.012;7.862;2023-10-19T04:27:47;14.70;99.90
12303;DHT22;6214;48.012;7.862;2023-10-19T04:30:16;14.70;99.90
12303;DHT22;6214;48.012;7.862;2023-10-19T04:32:43;14.70;99.90
12303;DHT22;6214;48.012;7.862;2023-10-19T04:35:14;14.80;99.90
12303;DHT22;6214;48.012;7.862;2023-10-19T04:37:51;14.80;99.90
12303;DHT22;6214;48.012;7.862;2023-10-19T04:40:19;14.80;99.90
12303;DHT22;6214;48.012;7.862;2023-10-19T04:42:47;14.80;99.90
12303;DHT22;6214;48.012;7.862;2023-10-19T04:45:14;14.80;99.90
12303;DHT22;6214;48.012;7.862;2023-10-19T04:47:41;14.80;99.90
12303;DHT22;6214;48.012;7.862;2023-10-19T04:50:09;14.80;99.90
12303;DHT22;6214;48.012;7.862;2023-10-19T04:52:39;14.70;99.90
12303;DHT22;6214;48.012;7.862;2023-10-19T04:55:06;14.60;99.90
12303;DHT22;6214;48.012;7.862;2023-10-19T04:57:33;14.60;99.90
12303;DHT22;6214;48.012;7.862;2023-10-19T05:00:00;14.60;99.90
12303;DHT22;6214;48.012;7.862;2023-10-19T05:02:26;14.60;99.90
12303;DHT22;6214;48.012;7.862;2023-10-19T05:04:53;14.60;99.90
12303;DHT22;6214;48.012;7.862;2023-10-19T05:07:20;14.70;99.90
12303;DHT22;6214;48.012;7.862;2023-10-19T05:09:47;14.60;99.90
12303;DHT22;6214;48.012;7.862;2023-10-19T05:12:14;14.60;99.90
12303;DHT22;6214;48.012;7.862;2023-10-19T05:14:42;14.50;99.90
12303;DHT22;6214;48.012;7.862;2023-10-19T05:17:10;14.50;99.90
12303;DHT22;6214;48.012;7.862;2023-10-19T05:19:38;14.40;99.90
12303;DHT22;6214;48.012;7.862;2023-10-19T05:22:07;14.30;99.90
12303;DHT22;6214;48.012;7.862;2023-10-19T05:24:35;14.30;99.90
12303;DHT22;6214;48.012;7.862;2023-10-19T05:27:02;14.50;99.90
12303;DHT22;6214;48.012;7.862;2023-10-19T05:29:31;14.40;99.90
12303;DHT22;6214;48.012;7.862;2023-10-19T05:31:59;14.50;99.90
12303;DHT22;6214;48.012;7.862;2023-10-19T05:34:27;14.60;99.90
12303;DHT22;6214;48.012;7.862;2023-10-19T05:36:56;14.60;99.90
12303;DHT22;6214;48.012;7.862;2023-10-19T05:39:25;14.70;99.90
12303;DHT22;6214;48.012;7.862;2023-10-19T05:41:57;14.60;99.90
12303;DHT22;6214;48.012;7.862;2023-10-19T05:44:29;14.60;99.90
12303;DHT22;6214;48.012;7.862;2023-10-19T05:46:57;14.60;99.90
12303;DHT22;6214;48.012;7.862;2023-10-19T05:49:25;14.60;99.90
12303;DHT22;6214;48.012;7.862;2023-10-19T05:51:52;14.60;99.90
12303;DHT22;6214;48.012;7.862;2023-10-19T05:54:19;14.60;99.90
12303;DHT22;6214;48.012;7.862;2023-10-19T05:56:45;14.60;99.90
12303;DHT22;6214;48.012;7.862;2023-10-19T05:59:12;14.30;99.90
12303;DHT22;6214;48.012;7.862;2023-10-19T06:01:40;14.20;99.90
12303;DHT22;6214;48.012;7.862;2023-10-19T06:04:13;14.20;99.90
12303;DHT22;6214;48.012;7.862;2023-10-19T06:06:40;14.30;99.90
12303;DHT22;6214;48.012;7.862;2023-10-19T06:09:08;14.30;99.90
12303;DHT22;6214;48.012;7.862;2023-10-19T06:11:37;14.30;99.90
12303;DHT22;6214;48.012;7.862;2023-10-19T06:14:09;14.40;99.90
12303;DHT22;6214;48.012;7.862;2023-10-19T06:16:36;14.30;99.90
12303;DHT22;6214;48.012;7.862;2023-10-19T06:19:04;14.30;99.90
12303;DHT22;6214;48.012;7.862;2023-10-19T06:21:31;14.30;99.90
12303;DHT22;6214;48.012;7.862;2023-10-19T06:23:59;14.30;99.90
12303;DHT22;6214;48.012;7.862;2023-10-19T06:26:26;14.40;99.90
12303;DHT22;6214;48.012;7.862;2023-10-19T06:28:52;14.30;99.90
12303;DHT22;6214;48.012;7.862;2023-10-19T06:31:25;14.40;99.90
12303;DHT22;6214;48.012;7.862;2023-10-19T06:33:56;14.30;99.90
12303;DHT22;6214;48.012;7.862;2023-10-19T06:36:24;14.40;99.90
12303;DHT22;6214;48.012;7.862;2023-10-19T06:38:50;14.50;99.90
12303;DHT22;6214;48.012;7.862;2023-10-19T06:41:17;14.40;99.90
12303;DHT22;6214;48.012;7.862;2023-10-19T06:43:47;14.40;99.90
12303;DHT22;6214;48.012;7.862;2023-10-19T06:46:14;14.40;99.90
12303;DHT22;6214;48.012;7.862;2023-10-19T06:48:41;14.50;99.90
12303;DHT22;6214;48.012;7.862;2023-10-19T06:51:09;14.40;99.90
12303;DHT22;6214;48.012;7.862;2023-10-19T06:53:35;14.30;99.90
12303;DHT22;6214;48.012;7.862;2023-10-19T06:56:02;14.40;99.90
12303;DHT22;6214;48.012;7.862;2023-10-19T06:58:30;14.30;99.90
12303;DHT22;6214;48.012;7.862;2023-10-19T07:00:57;14.30;99.90
12303;DHT22;6214;48.012;7.862;2023-10-19T07:03:32;15.40;99.90
12303;DHT22;6214;48.012;7.862;2023-10-19T07:05:59;14.30;99.90
12303;DHT22;6214;48.012;7.862;2023-10-19T07:08:26;14.50;99.90
12303;DHT22;6214;48.012;7.862;2023-10-19T07:10:54;14.70;99.90
12303;DHT22;6214;48.012;7.862;2023-10-19T07:13:20;14.80;99.90
12303;DHT22;6214;48.012;7.862;2023-10-19T07:15:48;15.00;99.90
12303;DHT22;6214;48.012;7.862;2023-10-19T07:18:18;15.00;99.90
12303;DHT22;6214;48.012;7.862;2023-10-19T07:20:45;15.10;99.90
12303;DHT22;6214;48.012;7.862;2023-10-19T07:23:15;15.20;99.90
12303;DHT22;6214;48.012;7.862;2023-10-19T07:25:48;15.20;99.90
12303;DHT22;6214;48.012;7.862;2023-10-19T07:28:19;15.20;99.90
12303;DHT22;6214;48.012;7.862;2023-10-19T07:30:46;15.20;99.90
12303;DHT22;6214;48.012;7.862;2023-10-19T07:33:14;15.30;99.90
12303;DHT22;6214;48.012;7.862;2023-10-19T07:35:48;15.20;99.90
12303;DHT22;6214;48.012;7.862;2023-10-19T07:38:19;15.20;99.90
12303;DHT22;6214;48.012;7.862;2023-10-19T07:40:48;15.40;99.90
12303;DHT22;6214;48.012;7.862;2023-10-19T07:43:15;15.40;99.90
12303;DHT22;6214;48.012;7.862;2023-10-19T07:45:42;15.40;99.90
12303;DHT22;6214;48.012;7.862;2023-10-19T07:48:09;15.50;99.90
12303;DHT22;6214;48.012;7.862;2023-10-19T07:50:39;15.60;99.90
12303;DHT22;6214;48.012;7.862;2023-10-19T07:53:07;15.70;99.90
12303;DHT22;6214;48.012;7.862;2023-10-19T07:55:36;15.80;99.90
12303;DHT22;6214;48.012;7.862;2023-10-19T07:58:05;15.80;99.90
12303;DHT22;6214;48.012;7.862;2023-10-19T08:00:37;15.80;99.90
12303;DHT22;6214;48.012;7.862;2023-10-19T08:03:05;15.60;99.90
12303;DHT22;6214;48.012;7.862;2023-10-19T08:05:32;15.70;99.90
12303;DHT22;6214;48.012;7.862;2023-10-19T08:08:01;15.70;99.90
12303;DHT22;6214;48.012;7.862;2023-10-19T08:10:30;15.70;99.90
12303;DHT22;6214;48.012;7.862;2023-10-19T08:12:57;15.70;99.90
12303;DHT22;6214;48.012;7.862;2023-10-19T08:15:25;15.70;99.90
12303;DHT22;6214;48.012;7.862;2023-10-19T08:17:52;15.70;99.90
12303;DHT22;6214;48.012;7.862;2023-10-19T08:20:23;15.60;99.90
12303;DHT22;6214;48.012;7.862;2023-10-19T08:22:52;15.60;99.90
12303;DHT22;6214;48.012;7.862;2023-10-19T08:25:20;15.40;99.90
12303;DHT22;6214;48.012;7.862;2023-10-19T08:27:48;15.50;99.90
12303;DHT22;6214;48.012;7.862;2023-10-19T08:30:20;15.50;99.90
12303;DHT22;6214;48.012;7.862;2023-10-19T08:32:54;15.40;99.90
12303;DHT22;6214;48.012;7.862;2023-10-19T08:35:21;15.40;99.90
12303;DHT22;6214;48.012;7.862;2023-10-19T08:37:53;15.50;99.90
12303;DHT22;6214;48.012;7.862;2023-10-19T08:40:21;15.60;99.90
12303;DHT22;6214;48.012;7.862;2023-10-19T08:42:50;15.60;99.90
12303;DHT22;6214;48.012;7.862;2023-10-19T08:45:17;15.50;99.90
12303;DHT22;6214;48.012;7.862;2023-10-19T08:50:30;15.50;99.90
12303;DHT22;6214;48.012;7.862;2023-10-19T08:53:00;15.60;99.90
12303;DHT22;6214;48.012;7.862;2023-10-19T08:55:31;15.50;99.90
12303;DHT22;6214;48.012;7.862;2023-10-19T08:58:15;15.60;99.90
12303;DHT22;6214;48.012;7.862;2023-10-19T09:00:47;15.70;99.90
12303;DHT22;6214;48.012;7.862;2023-10-19T09:03:15;15.80;99.90
12303;DHT22;6214;48.012;7.862;2023-10-19T09:05:44;15.60;99.90
12303;DHT22;6214;48.012;7.862;2023-10-19T09:08:19;15.70;99.90
12303;DHT22;6214;48.012;7.862;2023-10-19T09:10:49;15.80;99.90
12303;DHT22;6214;48.012;7.862;2023-10-19T09:13:18;16.00;99.90
12303;DHT22;6214;48.012;7.862;2023-10-19T09:15:47;16.00;99.90
12303;DHT22;6214;48.012;7.862;2023-10-19T09:18:23;16.00;99.90
12303;DHT22;6214;48.012;7.862;2023-10-19T09:20:52;16.10;99.90
12303;DHT22;6214;48.012;7.862;2023-10-19T09:23:24;16.10;99.90
12303;DHT22;6214;48.012;7.862;2023-10-19T09:25:52;16.10;99.90
12303;DHT22;6214;48.012;7.862;2023-10-19T09:28:21;16.10;99.90
12303;DHT22;6214;48.012;7.862;2023-10-19T09:30:49;16.10;99.90
12303;DHT22;6214;48.012;7.862;2023-10-19T09:33:20;15.80;99.90
12303;DHT22;6214;48.012;7.862;2023-10-19T09:35:49;15.90;99.90
12303;DHT22;6214;48.012;7.862;2023-10-19T09:38:19;16.00;99.90
12303;DHT22;6214;48.012;7.862;2023-10-19T09:40:50;15.90;99.90
12303;DHT22;6214;48.012;7.862;2023-10-19T09:43:38;15.70;99.90
12303;DHT22;6214;48.012;7.862;2023-10-19T09:46:08;15.70;99.90
12303;DHT22;6214;48.012;7.862;2023-10-19T09:48:39;15.80;99.90
12303;DHT22;6214;48.012;7.862;2023-10-19T09:51:09;15.70;99.90
12303;DHT22;6214;48.012;7.862;2023-10-19T09:53:49;15.90;99.90
12303;DHT22;6214;48.012;7.862;2023-10-19T09:56:21;16.00;99.90
12303;DHT22;6214;48.012;7.862;2023-10-19T09:58:51;16.10;99.90
12303;DHT22;6214;48.012;7.862;2023-10-19T10:01:19;16.10;99.90
12303;DHT22;6214;48.012;7.862;2023-10-19T10:03:52;16.10;99.90
12303;DHT22;6214;48.012;7.862;2023-10-19T10:06:30;16.20;99.90
12303;DHT22;6214;48.012;7.862;2023-10-19T10:09:00;16.30;99.90
12303;DHT22;6214;48.012;7.862;2023-10-19T10:11:27;16.50;99.90
12303;DHT22;6214;48.012;7.862;2023-10-19T10:13:56;16.50;99.90
12303;DHT22;6214;48.012;7.862;2023-10-19T10:16:26;16.50;99.90
12303;DHT22;6214;48.012;7.862;2023-10-19T10:18:58;16.50;99.90
12303;DHT22;6214;48.012;7.862;2023-10-19T10:21:28;16.50;99.90
12303;DHT22;6214;48.012;7.862;2023-10-19T10:23:57;16.60;99.90
12303;DHT22;6214;48.012;7.862;2023-10-19T10:26:30;16.60;99.90
12303;DHT22;6214;48.012;7.862;2023-10-19T10:29:21;16.70;99.90
12303;DHT22;6214;48.012;7.862;2023-10-19T10:31:50;16.70;99.90
12303;DHT22;6214;48.012;7.862;2023-10-19T10:37:12;16.90;99.90
12303;DHT22;6214;48.012;7.862;2023-10-19T10:39:41;17.10;99.90
12303;DHT22;6214;48.012;7.862;2023-10-19T10:42:09;17.40;99.90
12303;DHT22;6214;48.012;7.862;2023-10-19T10:44:46;17.60;99.90
12303;DHT22;6214;48.012;7.862;2023-10-19T10:47:21;17.70;99.90
12303;DHT22;6214;48.012;7.862;2023-10-19T10:49:59;17.70;99.90
12303;DHT22;6214;48.012;7.862;2023-10-19T10:52:31;17.70;99.90
12303;DHT22;6214;48.012;7.862;2023-10-19T10:55:11;17.80;99.90
12303;DHT22;6214;48.012;7.862;2023-10-19T10:57:39;17.60;99.90
12303;DHT22;6214;48.012;7.862;2023-10-19T11:00:11;17.50;99.90
12303;DHT22;6214;48.012;7.862;2023-10-19T11:03:01;17.50;99.90
12303;DHT22;6214;48.012;7.862;2023-10-19T11:05:30;17.50;99.90
12303;DHT22;6214;48.012;7.862;2023-10-19T11:08:06;17.60;99.90
12303;DHT22;6214;48.012;7.862;2023-10-19T11:10:34;17.60;99.90
12303;DHT22;6214;48.012;7.862;2023-10-19T11:13:05;17.40;99.90
12303;DHT22;6214;48.012;7.862;2023-10-19T11:15:38;17.50;99.90
12303;DHT22;6214;48.012;7.862;2023-10-19T11:18:06;17.40;99.90
12303;DHT22;6214;48.012;7.862;2023-10-19T11:20:36;17.40;99.90
12303;DHT22;6214;48.012;7.862;2023-10-19T11:23:03;17.50;99.90
12303;DHT22;6214;48.012;7.862;2023-10-19T11:25:30;17.50;99.90
12303;DHT22;6214;48.012;7.862;2023-10-19T11:28:00;17.50;99.90
12303;DHT22;6214;48.012;7.862;2023-10-19T11:30:31;17.60;99.90
12303;DHT22;6214;48.012;7.862;2023-10-19T11:32:59;17.60;99.90
12303;DHT22;6214;48.012;7.862;2023-10-19T11:35:29;17.50;99.90
12303;DHT22;6214;48.012;7.862;2023-10-19T11:37:59;17.60;99.90
12303;DHT22;6214;48.012;7.862;2023-10-19T11:40:27;17.60;99.90
12303;DHT22;6214;48.012;7.862;2023-10-19T11:42:54;17.60;99.90
12303;DHT22;6214;48.012;7.862;2023-10-19T11:45:25;17.50;99.90
12303;DHT22;6214;48.012;7.862;2023-10-19T11:47:53;17.60;99.90
12303;DHT22;6214;48.012;7.862;2023-10-19T11:50:21;17.50;99.90
12303;DHT22;6214;48.012;7.862;2023-10-19T11:52:48;17.40;99.90
12303;DHT22;6214;48.012;7.862;2023-10-19T11:55:15;17.60;99.90
12303;DHT22;6214;48.012;7.862;2023-10-19T11:57:43;17.60;99.90
12303;DHT22;6214;48.012;7.862;2023-10-19T12:00:11;17.70;99.90
12303;DHT22;6214;48.012;7.862;2023-10-19T12:02:40;17.50;99.90
12303;DHT22;6214;48.012;7.862;2023-10-19T12:05:10;17.60;99.90
12303;DHT22;6214;48.012;7.862;2023-10-19T12:07:37;17.60;99.90
12303;DHT22;6214;48.012;7.862;2023-10-19T12:10:07;17.70;99.90
12303;DHT22;6214;48.012;7.862;2023-10-19T12:12:35;17.70;99.90
12303;DHT22;6214;48.012;7.862;2023-10-19T12:15:22;17.60;99.90
12303;DHT22;6214;48.012;7.862;2023-10-19T12:17:49;17.60;99.90
12303;DHT22;6214;48.012;7.862;2023-10-19T12:20:17;17.60;99.90
12303;DHT22;6214;48.012;7.862;2023-10-19T12:22:48;17.70;99.90
12303;DHT22;6214;48.012;7.862;2023-10-19T12:25:18;17.60;99.90
12303;DHT22;6214;48.012;7.862;2023-10-19T12:27:45;17.60;99.90
12303;DHT22;6214;48.012;7.862;2023-10-19T12:30:12;17.60;99.90
12303;DHT22;6214;48.012;7.862;2023-10-19T12:32:54;17.50;99.90
12303;DHT22;6214;48.012;7.862;2023-10-19T12:35:21;17.50;99.90
12303;DHT22;6214;48.012;7.862;2023-10-19T12:37:52;17.50;99.90
12303;DHT22;6214;48.012;7.862;2023-10-19T12:40:19;17.50;99.90
12303;DHT22;6214;48.012;7.862;2023-10-19T12:42:56;17.40;99.90
12303;DHT22;6214;48.012;7.862;2023-10-19T12:45:24;17.30;99.90
12303;DHT22;6214;48.012;7.862;2023-10-19T12:47:52;17.30;99.90
12303;DHT22;6214;48.012;7.862;2023-10-19T12:50:19;17.30;99.90
12303;DHT22;6214;48.012;7.862;2023-10-19T12:52:50;17.30;99.90
12303;DHT22;6214;48.012;7.862;2023-10-19T12:55:18;17.20;99.90
12303;DHT22;6214;48.012;7.862;2023-10-19T12:57:45;17.10;99.90
12303;DHT22;6214;48.012;7.862;2023-10-19T13:00:12;17.10;99.90
12303;DHT22;6214;48.012;7.862;2023-10-19T13:02:52;17.10;99.90
12303;DHT22;6214;48.012;7.862;2023-10-19T13:05:27;17.10;99.90
12303;DHT22;6214;48.012;7.862;2023-10-19T13:07:54;17.10;99.90
12303;DHT22;6214;48.012;7.862;2023-10-19T13:10:28;17.10;99.90
12303;DHT22;6214;48.012;7.862;2023-10-19T13:13:05;17.10;99.90
12303;DHT22;6214;48.012;7.862;2023-10-19T13:15:34;17.10;99.90
12303;DHT22;6214;48.012;7.862;2023-10-19T13:18:06;17.00;99.90
12303;DHT22;6214;48.012;7.862;2023-10-19T13:20:34;17.00;99.90
12303;DHT22;6214;48.012;7.862;2023-10-19T13:23:02;17.10;99.90
12303;DHT22;6214;48.012;7.862;2023-10-19T13:25:32;17.10;99.90
12303;DHT22;6214;48.012;7.862;2023-10-19T13:28:17;17.10;99.90
12303;DHT22;6214;48.012;7.862;2023-10-19T13:33:15;17.00;99.90
12303;DHT22;6214;48.012;7.862;2023-10-19T13:35:44;17.10;99.90
12303;DHT22;6214;48.012;7.862;2023-10-19T13:38:12;17.00;99.90
12303;DHT22;6214;48.012;7.862;2023-10-19T13:40:41;17.10;99.90
12303;DHT22;6214;48.012;7.862;2023-10-19T13:43:09;17.10;99.90
12303;DHT22;6214;48.012;7.862;2023-10-19T13:45:42;17.10;99.90
12303;DHT22;6214;48.012;7.862;2023-10-19T13:48:12;17.00;99.90
12303;DHT22;6214;48.012;7.862;2023-10-19T13:50:44;17.10;99.90
12303;DHT22;6214;48.012;7.862;2023-10-19T13:53:17;17.20;99.90
12303;DHT22;6214;48.012;7.862;2023-10-19T13:55:44;17.20;99.90
12303;DHT22;6214;48.012;7.862;2023-10-19T13:58:12;17.30;99.90
12303;DHT22;6214;48.012;7.862;2023-10-19T14:00:41;17.40;99.90
12303;DHT22;6214;48.012;7.862;2023-10-19T14:03:11;17.40;99.90
12303;DHT22;6214;48.012;7.862;2023-10-19T14:05:44;17.40;99.90
12303;DHT22;6214;48.012;7.862;2023-10-19T14:08:16;17.30;99.90
12303;DHT22;6214;48.012;7.862;2023-10-19T14:10:43;17.40;99.90
12303;DHT22;6214;48.012;7.862;2023-10-19T14:13:10;17.40;99.90
12303;DHT22;6214;48.012;7.862;2023-10-19T14:15:43;17.30;99.90
12303;DHT22;6214;48.012;7.862;2023-10-19T14:18:11;17.30;99.90
12303;DHT22;6214;48.012;7.862;2023-10-19T14:20:38;17.30;99.90
12303;DHT22;6214;48.012;7.862;2023-10-19T14:23:06;17.40;99.90
12303;DHT22;6214;48.012;7.862;2023-10-19T14:25:37;17.50;99.90
12303;DHT22;6214;48.012;7.862;2023-10-19T14:28:08;17.40;99.90
12303;DHT22;6214;48.012;7.862;2023-10-19T14:30:36;17.40;99.90
12303;DHT22;6214;48.012;7.862;2023-10-19T14:33:03;17.40;99.90
12303;DHT22;6214;48.012;7.862;2023-10-19T14:35:30;17.40;99.90
12303;DHT22;6214;48.012;7.862;2023-10-19T14:37:57;17.40;99.90
12303;DHT22;6214;48.012;7.862;2023-10-19T14:40:27;17.40;99.90
12303;DHT22;6214;48.012;7.862;2023-10-19T14:42:56;17.30;99.90
12303;DHT22;6214;48.012;7.862;2023-10-19T14:45:26;17.30;99.90
12303;DHT22;6214;48.012;7.862;2023-10-19T14:47:57;17.40;99.90
12303;DHT22;6214;48.012;7.862;2023-10-19T14:50:30;17.30;99.90
12303;DHT22;6214;48.012;7.862;2023-10-19T14:52:57;17.20;99.90
12303;DHT22;6214;48.012;7.862;2023-10-19T14:55:25;17.30;99.90
12303;DHT22;6214;48.012;7.862;2023-10-19T14:57:53;17.10;99.90
12303;DHT22;6214;48.012;7.862;2023-10-19T15:00:24;17.10;99.90
12303;DHT22;6214;48.012;7.862;2023-10-19T15:03:03;17.00;99.90
12303;DHT22;6214;48.012;7.862;2023-10-19T15:05:37;17.00;99.90
12303;DHT22;6214;48.012;7.862;2023-10-19T15:08:05;17.00;99.90
12303;DHT22;6214;48.012;7.862;2023-10-19T15:10:34;17.00;99.90
12303;DHT22;6214;48.012;7.862;2023-10-19T15:13:01;17.00;99.90
12303;DHT22;6214;48.012;7.862;2023-10-19T15:15:29;16.80;99.90
12303;DHT22;6214;48.012;7.862;2023-10-19T15:17:56;16.90;99.90
12303;DHT22;6214;48.012;7.862;2023-10-19T15:20:26;16.90;99.90
12303;DHT22;6214;48.012;7.862;2023-10-19T15:22:53;16.90;99.90
12303;DHT22;6214;48.012;7.862;2023-10-19T15:25:23;16.90;99.90
12303;DHT22;6214;48.012;7.862;2023-10-19T15:27:53;17.00;99.90
12303;DHT22;6214;48.012;7.862;2023-10-19T15:30:21;16.90;99.90
12303;DHT22;6214;48.012;7.862;2023-10-19T15:32:50;16.90;99.90
12303;DHT22;6214;48.012;7.862;2023-10-19T15:35:18;17.00;99.90
12303;DHT22;6214;48.012;7.862;2023-10-19T15:37:49;17.00;99.90
12303;DHT22;6214;48.012;7.862;2023-10-19T15:40:16;17.00;99.90
12303;DHT22;6214;48.012;7.862;2023-10-19T15:42:43;17.00;99.90
12303;DHT22;6214;48.012;7.862;2023-10-19T15:45:14;17.00;99.90
12303;DHT22;6214;48.012;7.862;2023-10-19T15:47:45;17.00;99.90
12303;DHT22;6214;48.012;7.862;2023-10-19T15:50:15;17.00;99.90
12303;DHT22;6214;48.012;7.862;2023-10-19T15:52:43;17.00;99.90
12303;DHT22;6214;48.012;7.862;2023-10-19T15:55:11;16.90;99.90
12303;DHT22;6214;48.012;7.862;2023-10-19T15:57:41;16.90;99.90
12303;DHT22;6214;48.012;7.862;2023-10-19T16:00:09;16.90;99.90
12303;DHT22;6214;48.012;7.862;2023-10-19T16:02:41;16.90;99.90
12303;DHT22;6214;48.012;7.862;2023-10-19T16:05:09;16.90;99.90
12303;DHT22;6214;48.012;7.862;2023-10-19T16:07:37;16.80;99.90
12303;DHT22;6214;48.012;7.862;2023-10-19T16:10:05;16.80;99.90